sensor_id;sensor_type;location;lat;lon;timestamp;pressure;altitude;pressure_sealevel;temperature;humidity
51067;BME280;37112;45.892;-123.962;2023-06-22T00:00:17;102018.41;;;19.64;59.96
51067;BME280;37112;45.892;-123.962;2023-06-22T00:03:08;102009.54;;;19.63;58.42
51067;BME280;37112;45.892;-123.962;2023-06-22T00:05:39;102012.81;;;19.64;57.76
51067;BME280;37112;45.892;-123.962;2023-06-22T00:07:58;102010.16;;;19.59;57.19
51067;BME280;37112;45.892;-123.962;2023-06-22T00:10:29;102010.15;;;19.55;57.18
51067;BME280;37112;45.892;-123.962;2023-06-22T00:12:59;102010.96;;;19.52;56.51
51067;BME280;37112;45.892;-123.962;2023-06-22T00:15:30;102009.59;;;19.49;57.52
51067;BME280;37112;45.892;-123.962;2023-06-22T00:18:01;102009.88;;;19.56;57.76
51067;BME280;37112;45.892;-123.962;2023-06-22T00:20:24;102007.41;;;19.68;57.76
51067;BME280;37112;45.892;-123.962;2023-06-22T00:22:55;102010.15;;;19.59;56.52
51067;BME280;37112;45.892;-123.962;2023-06-22T00:25:26;102009.73;;;19.43;56.02
51067;BME280;37112;45.892;-123.962;2023-06-22T00:27:56;102008.45;;;19.39;57.28
51067;BME280;37112;45.892;-123.962;2023-06-22T00:30:18;102005.33;;;19.42;56.78
51067;BME280;37112;45.892;-123.962;2023-06-22T00:32:49;101999.27;;;19.33;57.25
51067;BME280;37112;45.892;-123.962;2023-06-22T00:35:14;101997.73;;;19.27;56.98
51067;BME280;37112;45.892;-123.962;2023-06-22T00:37:44;101994.66;;;19.27;56.55
51067;BME280;37112;45.892;-123.962;2023-06-22T00:40:15;101993.33;;;19.33;56.28
51067;BME280;37112;45.892;-123.962;2023-06-22T00:42:50;101988.45;;;19.43;55.77
51067;BME280;37112;45.892;-123.962;2023-06-22T00:45:20;101983.64;;;19.42;54.91
51067;BME280;37112;45.892;-123.962;2023-06-22T00:47:52;101981.07;;;19.33;55.86
51067;BME280;37112;45.892;-123.962;2023-06-22T00:50:24;101977.67;;;19.37;56.90
51067;BME280;37112;45.892;-123.962;2023-06-22T00:52:57;101974.34;;;19.48;55.40
51067;BME280;37112;45.892;-123.962;2023-06-22T00:55:27;101973.50;;;19.56;55.72
51067;BME280;37112;45.892;-123.962;2023-06-22T00:57:59;101968.15;;;19.66;55.00
51067;BME280;37112;45.892;-123.962;2023-06-22T01:00:30;101965.79;;;19.66;53.58
51067;BME280;37112;45.892;-123.962;2023-06-22T01:03:02;101964.46;;;19.67;52.66
51067;BME280;37112;45.892;-123.962;2023-06-22T01:05:33;101961.78;;;19.58;53.26
51067;BME280;37112;45.892;-123.962;2023-06-22T01:08:21;101958.06;;;19.60;53.17
51067;BME280;37112;45.892;-123.962;2023-06-22T01:10:57;101952.74;;;19.54;53.75
51067;BME280;37112;45.892;-123.962;2023-06-22T01:13:31;101953.31;;;19.60;53.75
51067;BME280;37112;45.892;-123.962;2023-06-22T01:16:05;101954.41;;;19.49;52.71
51067;BME280;37112;45.892;-123.962;2023-06-22T01:18:39;101955.21;;;19.44;53.57
51067;BME280;37112;45.892;-123.962;2023-06-22T01:21:08;101954.04;;;19.49;54.63
51067;BME280;37112;45.892;-123.962;2023-06-22T01:23:51;101957.28;;;19.50;54.08
51067;BME280;37112;45.892;-123.962;2023-06-22T01:26:40;101957.08;;;19.50;54.23
51067;BME280;37112;45.892;-123.962;2023-06-22T01:29:06;101955.02;;;19.57;53.80
51067;BME280;37112;45.892;-123.962;2023-06-22T01:31:41;101952.98;;;19.62;53.00
51067;BME280;37112;45.892;-123.962;2023-06-22T01:34:13;101952.70;;;19.65;53.41
51067;BME280;37112;45.892;-123.962;2023-06-22T01:36:44;101950.16;;;19.74;53.20
51067;BME280;37112;45.892;-123.962;2023-06-22T01:39:15;101950.28;;;19.70;51.52
51067;BME280;37112;45.892;-123.962;2023-06-22T01:41:48;101943.67;;;19.62;52.61
51067;BME280;37112;45.892;-123.962;2023-06-22T01:44:19;101940.86;;;19.65;53.07
51067;BME280;37112;45.892;-123.962;2023-06-22T01:46:41;101940.59;;;19.68;52.68
51067;BME280;37112;45.892;-123.962;2023-06-22T01:49:12;101935.75;;;19.65;52.77
51067;BME280;37112;45.892;-123.962;2023-06-22T01:51:43;101933.47;;;19.67;53.26
51067;BME280;37112;45.892;-123.962;2023-06-22T01:54:14;101935.36;;;19.70;53.12
51067;BME280;37112;45.892;-123.962;2023-06-22T01:56:45;101931.50;;;19.71;53.39
51067;BME280;37112;45.892;-123.962;2023-06-22T01:59:17;101934.79;;;19.70;53.39
51067;BME280;37112;45.892;-123.962;2023-06-22T02:01:57;101931.72;;;19.60;53.32
51067;BME280;37112;45.892;-123.962;2023-06-22T02:04:27;101929.45;;;19.63;53.15
51067;BME280;37112;45.892;-123.962;2023-06-22T02:06:48;101932.61;;;19.64;53.70
51067;BME280;37112;45.892;-123.962;2023-06-22T02:09:22;101927.13;;;19.65;53.91
51067;BME280;37112;45.892;-123.962;2023-06-22T02:11:55;101925.81;;;19.64;54.13
51067;BME280;37112;45.892;-123.962;2023-06-22T02:14:26;101928.04;;;19.61;54.32
51067;BME280;37112;45.892;-123.962;2023-06-22T02:16:58;101929.04;;;19.51;54.47
51067;BME280;37112;45.892;-123.962;2023-06-22T02:19:26;101926.79;;;19.46;55.09
51067;BME280;37112;45.892;-123.962;2023-06-22T02:22:02;101924.30;;;19.46;55.20
51067;BME280;37112;45.892;-123.962;2023-06-22T02:24:33;101915.31;;;19.43;55.04
51067;BME280;37112;45.892;-123.962;2023-06-22T02:27:04;101913.36;;;19.41;53.81
51067;BME280;37112;45.892;-123.962;2023-06-22T02:29:36;101915.77;;;19.38;54.52
51067;BME280;37112;45.892;-123.962;2023-06-22T02:32:08;101919.71;;;19.28;55.45
51067;BME280;37112;45.892;-123.962;2023-06-22T02:34:27;101922.44;;;19.11;56.14
51067;BME280;37112;45.892;-123.962;2023-06-22T02:36:57;101923.67;;;18.94;56.40
51067;BME280;37112;45.892;-123.962;2023-06-22T02:39:29;101923.54;;;18.87;56.81
51067;BME280;37112;45.892;-123.962;2023-06-22T02:41:49;101920.41;;;18.79;56.88
51067;BME280;37112;45.892;-123.962;2023-06-22T02:44:19;101924.64;;;18.65;57.34
51067;BME280;37112;45.892;-123.962;2023-06-22T02:46:50;101926.21;;;18.43;57.82
51067;BME280;37112;45.892;-123.962;2023-06-22T02:49:20;101927.33;;;18.29;58.23
51067;BME280;37112;45.892;-123.962;2023-06-22T02:51:51;101926.58;;;18.14;58.77
51067;BME280;37112;45.892;-123.962;2023-06-22T02:54:21;101927.92;;;18.00;59.16
51067;BME280;37112;45.892;-123.962;2023-06-22T02:56:52;101925.23;;;17.81;59.71
51067;BME280;37112;45.892;-123.962;2023-06-22T02:59:22;101924.39;;;17.65;60.29
51067;BME280;37112;45.892;-123.962;2023-06-22T03:01:53;101919.52;;;17.56;60.85
51067;BME280;37112;45.892;-123.962;2023-06-22T03:04:24;101921.44;;;17.45;61.28
51067;BME280;37112;45.892;-123.962;2023-06-22T03:06:43;101915.48;;;17.38;61.45
51067;BME280;37112;45.892;-123.962;2023-06-22T03:09:20;101913.80;;;17.39;61.60
51067;BME280;37112;45.892;-123.962;2023-06-22T03:11:50;101909.02;;;17.43;61.74
51067;BME280;37112;45.892;-123.962;2023-06-22T03:14:21;101905.54;;;17.48;61.96
51067;BME280;37112;45.892;-123.962;2023-06-22T03:16:45;101908.08;;;17.57;62.13
51067;BME280;37112;45.892;-123.962;2023-06-22T03:19:15;101906.49;;;17.64;61.88
51067;BME280;37112;45.892;-123.962;2023-06-22T03:21:37;101903.92;;;17.60;61.54
51067;BME280;37112;45.892;-123.962;2023-06-22T03:24:09;101905.40;;;17.52;61.54
51067;BME280;37112;45.892;-123.962;2023-06-22T03:26:39;101904.34;;;17.45;61.62
51067;BME280;37112;45.892;-123.962;2023-06-22T03:29:10;101905.88;;;17.46;61.98
51067;BME280;37112;45.892;-123.962;2023-06-22T03:31:41;101902.98;;;17.49;62.20
51067;BME280;37112;45.892;-123.962;2023-06-22T03:34:11;101900.61;;;17.61;62.70
51067;BME280;37112;45.892;-123.962;2023-06-22T03:36:42;101902.05;;;17.70;62.11
51067;BME280;37112;45.892;-123.962;2023-06-22T03:39:14;101902.96;;;17.65;61.68
51067;BME280;37112;45.892;-123.962;2023-06-22T03:41:45;101906.20;;;17.63;61.65
51067;BME280;37112;45.892;-123.962;2023-06-22T03:44:15;101906.13;;;17.60;61.72
51067;BME280;37112;45.892;-123.962;2023-06-22T03:46:46;101904.25;;;17.60;61.88
51067;BME280;37112;45.892;-123.962;2023-06-22T03:49:10;101904.87;;;17.64;61.94
51067;BME280;37112;45.892;-123.962;2023-06-22T03:51:40;101903.83;;;17.64;61.71
51067;BME280;37112;45.892;-123.962;2023-06-22T03:54:11;101906.21;;;17.56;61.56
51067;BME280;37112;45.892;-123.962;2023-06-22T03:56:42;101906.05;;;17.49;61.68
51067;BME280;37112;45.892;-123.962;2023-06-22T03:59:05;101902.92;;;17.38;61.63
51067;BME280;37112;45.892;-123.962;2023-06-22T04:01:35;101905.16;;;17.28;61.86
51067;BME280;37112;45.892;-123.962;2023-06-22T04:04:05;101907.80;;;17.17;61.87
51067;BME280;37112;45.892;-123.962;2023-06-22T04:06:37;101909.96;;;17.07;62.03
51067;BME280;37112;45.892;-123.962;2023-06-22T04:08:57;101909.54;;;16.99;62.20
51067;BME280;37112;45.892;-123.962;2023-06-22T04:11:27;101907.13;;;16.88;62.34
51067;BME280;37112;45.892;-123.962;2023-06-22T04:13:57;101909.24;;;16.77;62.62
51067;BME280;37112;45.892;-123.962;2023-06-22T04:16:16;101909.95;;;16.67;62.59
51067;BME280;37112;45.892;-123.962;2023-06-22T04:18:46;101909.61;;;16.57;62.91
51067;BME280;37112;45.892;-123.962;2023-06-22T04:21:17;101909.86;;;16.49;63.13
51067;BME280;37112;45.892;-123.962;2023-06-22T04:23:49;101905.98;;;16.35;63.27
51067;BME280;37112;45.892;-123.962;2023-06-22T04:26:19;101910.58;;;16.26;63.45
51067;BME280;37112;45.892;-123.962;2023-06-22T04:28:51;101911.60;;;16.20;63.72
51067;BME280;37112;45.892;-123.962;2023-06-22T04:31:24;101912.30;;;16.18;64.09
51067;BME280;37112;45.892;-123.962;2023-06-22T04:34:02;101913.19;;;16.15;64.27
51067;BME280;37112;45.892;-123.962;2023-06-22T04:36:38;101916.64;;;16.12;64.35
51067;BME280;37112;45.892;-123.962;2023-06-22T04:39:09;101916.13;;;16.07;64.45
51067;BME280;37112;45.892;-123.962;2023-06-22T04:41:40;101920.28;;;16.01;64.54
51067;BME280;37112;45.892;-123.962;2023-06-22T04:44:14;101917.73;;;15.94;64.62
51067;BME280;37112;45.892;-123.962;2023-06-22T04:46:53;101914.04;;;15.85;64.93
51067;BME280;37112;45.892;-123.962;2023-06-22T04:49:29;101917.73;;;15.79;65.03
51067;BME280;37112;45.892;-123.962;2023-06-22T04:52:02;101918.50;;;15.73;65.13
51067;BME280;37112;45.892;-123.962;2023-06-22T04:54:34;101912.20;;;15.69;65.32
51067;BME280;37112;45.892;-123.962;2023-06-22T04:57:06;101909.83;;;15.64;65.42
51067;BME280;37112;45.892;-123.962;2023-06-22T04:59:29;101909.61;;;15.59;65.53
51067;BME280;37112;45.892;-123.962;2023-06-22T05:02:00;101907.38;;;15.50;65.46
51067;BME280;37112;45.892;-123.962;2023-06-22T05:04:30;101905.42;;;15.42;65.67
51067;BME280;37112;45.892;-123.962;2023-06-22T05:07:02;101900.09;;;15.34;65.94
51067;BME280;37112;45.892;-123.962;2023-06-22T05:09:41;101897.05;;;15.26;66.22
51067;BME280;37112;45.892;-123.962;2023-06-22T05:12:03;101893.38;;;15.22;66.49
51067;BME280;37112;45.892;-123.962;2023-06-22T05:14:36;101894.61;;;15.17;66.58
51067;BME280;37112;45.892;-123.962;2023-06-22T05:16:58;101894.80;;;15.12;66.79
51067;BME280;37112;45.892;-123.962;2023-06-22T05:19:33;101894.05;;;15.07;67.01
51067;BME280;37112;45.892;-123.962;2023-06-22T05:22:03;101894.06;;;15.02;67.21
51067;BME280;37112;45.892;-123.962;2023-06-22T05:24:35;101893.69;;;14.97;67.44
51067;BME280;37112;45.892;-123.962;2023-06-22T05:27:07;101888.87;;;14.94;67.61
51067;BME280;37112;45.892;-123.962;2023-06-22T05:29:37;101882.61;;;14.89;67.79
51067;BME280;37112;45.892;-123.962;2023-06-22T05:32:10;101878.53;;;14.85;67.87
51067;BME280;37112;45.892;-123.962;2023-06-22T05:34:40;101872.48;;;14.82;68.12
51067;BME280;37112;45.892;-123.962;2023-06-22T05:37:12;101869.42;;;14.82;68.37
51067;BME280;37112;45.892;-123.962;2023-06-22T05:39:42;101866.39;;;14.83;68.57
51067;BME280;37112;45.892;-123.962;2023-06-22T05:42:14;101863.63;;;14.81;68.63
51067;BME280;37112;45.892;-123.962;2023-06-22T05:44:45;101865.31;;;14.80;68.81
51067;BME280;37112;45.892;-123.962;2023-06-22T05:47:15;101858.25;;;14.75;68.87
51067;BME280;37112;45.892;-123.962;2023-06-22T05:49:47;101856.83;;;14.73;68.93
51067;BME280;37112;45.892;-123.962;2023-06-22T05:52:17;101855.59;;;14.70;69.10
51067;BME280;37112;45.892;-123.962;2023-06-22T05:54:48;101849.90;;;14.67;69.18
51067;BME280;37112;45.892;-123.962;2023-06-22T05:57:19;101848.45;;;14.61;69.56
51067;BME280;37112;45.892;-123.962;2023-06-22T05:59:43;101845.77;;;14.59;69.51
51067;BME280;37112;45.892;-123.962;2023-06-22T06:02:02;101840.90;;;14.55;69.49
51067;BME280;37112;45.892;-123.962;2023-06-22T06:04:33;101840.92;;;14.49;69.56
51067;BME280;37112;45.892;-123.962;2023-06-22T06:07:04;101839.63;;;14.46;69.77
51067;BME280;37112;45.892;-123.962;2023-06-22T06:09:35;101835.56;;;14.46;69.94
51067;BME280;37112;45.892;-123.962;2023-06-22T06:12:07;101832.00;;;14.45;70.05
51067;BME280;37112;45.892;-123.962;2023-06-22T06:14:37;101833.40;;;14.46;70.02
51067;BME280;37112;45.892;-123.962;2023-06-22T06:17:07;101837.20;;;14.45;70.12
51067;BME280;37112;45.892;-123.962;2023-06-22T06:19:38;101838.18;;;14.44;70.09
51067;BME280;37112;45.892;-123.962;2023-06-22T06:22:08;101838.24;;;14.43;70.23
51067;BME280;37112;45.892;-123.962;2023-06-22T06:24:33;101836.73;;;14.44;70.32
51067;BME280;37112;45.892;-123.962;2023-06-22T06:27:04;101835.38;;;14.43;70.29
51067;BME280;37112;45.892;-123.962;2023-06-22T06:29:34;101837.45;;;14.42;70.33
51067;BME280;37112;45.892;-123.962;2023-06-22T06:32:06;101831.63;;;14.40;70.38
51067;BME280;37112;45.892;-123.962;2023-06-22T06:34:36;101826.04;;;14.38;70.41
51067;BME280;37112;45.892;-123.962;2023-06-22T06:37:07;101826.02;;;14.36;70.52
51067;BME280;37112;45.892;-123.962;2023-06-22T06:39:37;101815.91;;;14.35;70.60
51067;BME280;37112;45.892;-123.962;2023-06-22T06:42:05;101820.14;;;14.36;70.70
51067;BME280;37112;45.892;-123.962;2023-06-22T06:44:36;101818.56;;;14.35;70.73
51067;BME280;37112;45.892;-123.962;2023-06-22T06:47:07;101816.10;;;14.35;70.74
51067;BME280;37112;45.892;-123.962;2023-06-22T06:49:27;101814.79;;;14.33;70.73
51067;BME280;37112;45.892;-123.962;2023-06-22T06:51:56;101814.23;;;14.30;70.87
51067;BME280;37112;45.892;-123.962;2023-06-22T06:54:15;101810.13;;;14.28;70.80
51067;BME280;37112;45.892;-123.962;2023-06-22T06:56:49;101808.17;;;14.28;70.92
51067;BME280;37112;45.892;-123.962;2023-06-22T06:59:20;101806.02;;;14.25;70.85
51067;BME280;37112;45.892;-123.962;2023-06-22T07:01:50;101805.23;;;14.23;70.83
51067;BME280;37112;45.892;-123.962;2023-06-22T07:04:14;101801.20;;;14.19;70.79
51067;BME280;37112;45.892;-123.962;2023-06-22T07:06:45;101797.12;;;14.16;70.82
51067;BME280;37112;45.892;-123.962;2023-06-22T07:09:15;101799.96;;;14.11;70.73
51067;BME280;37112;45.892;-123.962;2023-06-22T07:11:39;101800.65;;;14.06;70.84
51067;BME280;37112;45.892;-123.962;2023-06-22T07:14:09;101797.79;;;14.01;70.98
51067;BME280;37112;45.892;-123.962;2023-06-22T07:16:40;101791.79;;;13.97;71.27
51067;BME280;37112;45.892;-123.962;2023-06-22T07:19:10;101793.27;;;13.93;71.30
51067;BME280;37112;45.892;-123.962;2023-06-22T07:21:41;101784.75;;;13.87;71.37
51067;BME280;37112;45.892;-123.962;2023-06-22T07:24:11;101783.60;;;13.82;71.53
51067;BME280;37112;45.892;-123.962;2023-06-22T07:26:42;101786.05;;;13.78;71.59
51067;BME280;37112;45.892;-123.962;2023-06-22T07:29:14;101782.46;;;13.73;71.85
51067;BME280;37112;45.892;-123.962;2023-06-22T07:31:45;101784.74;;;13.67;72.00
51067;BME280;37112;45.892;-123.962;2023-06-22T07:34:15;101781.14;;;13.62;72.10
51067;BME280;37112;45.892;-123.962;2023-06-22T07:36:46;101782.11;;;13.58;72.22
51067;BME280;37112;45.892;-123.962;2023-06-22T07:39:16;101777.46;;;13.53;72.23
51067;BME280;37112;45.892;-123.962;2023-06-22T07:41:45;101773.19;;;13.47;72.35
51067;BME280;37112;45.892;-123.962;2023-06-22T07:44:15;101774.02;;;13.42;72.47
51067;BME280;37112;45.892;-123.962;2023-06-22T07:46:45;101770.19;;;13.38;72.74
51067;BME280;37112;45.892;-123.962;2023-06-22T07:49:16;101769.95;;;13.33;72.79
51067;BME280;37112;45.892;-123.962;2023-06-22T07:51:47;101765.04;;;13.29;72.88
51067;BME280;37112;45.892;-123.962;2023-06-22T07:54:17;101764.36;;;13.26;73.19
51067;BME280;37112;45.892;-123.962;2023-06-22T07:56:48;101760.23;;;13.23;73.40
51067;BME280;37112;45.892;-123.962;2023-06-22T07:59:17;101758.04;;;13.21;73.50
51067;BME280;37112;45.892;-123.962;2023-06-22T08:01:48;101752.69;;;13.18;73.62
51067;BME280;37112;45.892;-123.962;2023-06-22T08:04:18;101755.73;;;13.15;73.73
51067;BME280;37112;45.892;-123.962;2023-06-22T08:06:37;101751.23;;;13.12;73.88
51067;BME280;37112;45.892;-123.962;2023-06-22T08:09:07;101750.63;;;13.11;74.11
51067;BME280;37112;45.892;-123.962;2023-06-22T08:11:37;101746.80;;;13.09;74.39
51067;BME280;37112;45.892;-123.962;2023-06-22T08:14:06;101745.02;;;13.09;74.57
51067;BME280;37112;45.892;-123.962;2023-06-22T08:16:25;101744.58;;;13.10;74.64
51067;BME280;37112;45.892;-123.962;2023-06-22T08:18:44;101740.48;;;13.10;74.74
51067;BME280;37112;45.892;-123.962;2023-06-22T08:21:13;101739.81;;;13.13;74.85
51067;BME280;37112;45.892;-123.962;2023-06-22T08:23:43;101737.26;;;13.14;74.91
51067;BME280;37112;45.892;-123.962;2023-06-22T08:26:13;101732.27;;;13.14;74.83
51067;BME280;37112;45.892;-123.962;2023-06-22T08:28:44;101730.70;;;13.13;74.91
51067;BME280;37112;45.892;-123.962;2023-06-22T08:31:17;101728.03;;;13.13;75.00
51067;BME280;37112;45.892;-123.962;2023-06-22T08:33:50;101726.23;;;13.13;75.04
51067;BME280;37112;45.892;-123.962;2023-06-22T08:36:13;101723.22;;;13.13;75.05
51067;BME280;37112;45.892;-123.962;2023-06-22T08:38:43;101718.59;;;13.13;75.10
51067;BME280;37112;45.892;-123.962;2023-06-22T08:41:13;101715.62;;;13.12;75.15
51067;BME280;37112;45.892;-123.962;2023-06-22T08:43:48;101717.30;;;13.10;75.31
51067;BME280;37112;45.892;-123.962;2023-06-22T08:46:18;101709.83;;;13.10;75.36
51067;BME280;37112;45.892;-123.962;2023-06-22T08:48:40;101706.11;;;13.10;75.39
51067;BME280;37112;45.892;-123.962;2023-06-22T08:51:10;101703.84;;;13.09;75.51
51067;BME280;37112;45.892;-123.962;2023-06-22T08:54:06;101703.64;;;13.09;75.67
51067;BME280;37112;45.892;-123.962;2023-06-22T08:56:39;101700.98;;;13.09;75.61
51067;BME280;37112;45.892;-123.962;2023-06-22T08:59:12;101699.99;;;13.08;75.48
51067;BME280;37112;45.892;-123.962;2023-06-22T09:01:42;101693.71;;;13.05;75.31
51067;BME280;37112;45.892;-123.962;2023-06-22T09:04:16;101695.22;;;13.01;75.28
51067;BME280;37112;45.892;-123.962;2023-06-22T09:06:46;101695.54;;;12.99;75.24
51067;BME280;37112;45.892;-123.962;2023-06-22T09:09:17;101691.89;;;12.95;75.07
51067;BME280;37112;45.892;-123.962;2023-06-22T09:11:37;101690.13;;;12.92;75.19
51067;BME280;37112;45.892;-123.962;2023-06-22T09:14:08;101687.20;;;12.90;75.17
51067;BME280;37112;45.892;-123.962;2023-06-22T09:16:39;101684.98;;;12.88;75.31
51067;BME280;37112;45.892;-123.962;2023-06-22T09:19:05;101683.02;;;12.86;75.27
51067;BME280;37112;45.892;-123.962;2023-06-22T09:21:25;101679.92;;;12.83;75.32
51067;BME280;37112;45.892;-123.962;2023-06-22T09:23:57;101679.06;;;12.80;75.26
51067;BME280;37112;45.892;-123.962;2023-06-22T09:26:27;101677.13;;;12.77;75.24
51067;BME280;37112;45.892;-123.962;2023-06-22T09:28:59;101675.59;;;12.76;75.41
51067;BME280;37112;45.892;-123.962;2023-06-22T09:31:30;101674.95;;;12.74;75.34
51067;BME280;37112;45.892;-123.962;2023-06-22T09:34:00;101671.58;;;12.72;75.36
51067;BME280;37112;45.892;-123.962;2023-06-22T09:36:30;101666.70;;;12.70;75.30
51067;BME280;37112;45.892;-123.962;2023-06-22T09:39:00;101668.73;;;12.66;75.21
51067;BME280;37112;45.892;-123.962;2023-06-22T09:41:37;101663.84;;;12.61;75.27
51067;BME280;37112;45.892;-123.962;2023-06-22T09:44:08;101662.98;;;12.58;75.63
51067;BME280;37112;45.892;-123.962;2023-06-22T09:46:40;101654.43;;;12.58;75.88
51067;BME280;37112;45.892;-123.962;2023-06-22T09:49:10;101656.63;;;12.57;75.98
51067;BME280;37112;45.892;-123.962;2023-06-22T09:51:53;101658.83;;;12.56;75.99
51067;BME280;37112;45.892;-123.962;2023-06-22T09:54:18;101655.16;;;12.51;75.93
51067;BME280;37112;45.892;-123.962;2023-06-22T09:56:49;101654.98;;;12.49;76.15
51067;BME280;37112;45.892;-123.962;2023-06-22T09:59:20;101651.09;;;12.45;76.36
51067;BME280;37112;45.892;-123.962;2023-06-22T10:01:51;101649.16;;;12.42;76.43
51067;BME280;37112;45.892;-123.962;2023-06-22T10:04:21;101645.31;;;12.38;76.53
51067;BME280;37112;45.892;-123.962;2023-06-22T10:06:54;101638.70;;;12.32;76.71
51067;BME280;37112;45.892;-123.962;2023-06-22T10:09:25;101636.50;;;12.27;76.78
51067;BME280;37112;45.892;-123.962;2023-06-22T10:11:57;101633.73;;;12.23;76.96
51067;BME280;37112;45.892;-123.962;2023-06-22T10:14:17;101631.36;;;12.20;77.07
51067;BME280;37112;45.892;-123.962;2023-06-22T10:16:50;101629.47;;;12.17;77.13
51067;BME280;37112;45.892;-123.962;2023-06-22T10:19:27;101629.70;;;12.13;77.29
51067;BME280;37112;45.892;-123.962;2023-06-22T10:21:46;101630.52;;;12.11;77.52
51067;BME280;37112;45.892;-123.962;2023-06-22T10:24:16;101627.00;;;12.10;77.66
51067;BME280;37112;45.892;-123.962;2023-06-22T10:26:46;101623.25;;;12.08;77.76
51067;BME280;37112;45.892;-123.962;2023-06-22T10:29:17;101619.95;;;12.07;77.72
51067;BME280;37112;45.892;-123.962;2023-06-22T10:31:48;101621.27;;;12.05;77.72
51067;BME280;37112;45.892;-123.962;2023-06-22T10:34:19;101618.38;;;12.03;77.75
51067;BME280;37112;45.892;-123.962;2023-06-22T10:36:49;101618.17;;;12.00;77.79
51067;BME280;37112;45.892;-123.962;2023-06-22T10:39:11;101616.98;;;11.99;78.18
51067;BME280;37112;45.892;-123.962;2023-06-22T10:41:41;101618.69;;;12.01;78.39
51067;BME280;37112;45.892;-123.962;2023-06-22T10:44:03;101613.01;;;12.01;78.47
51067;BME280;37112;45.892;-123.962;2023-06-22T10:46:33;101616.34;;;12.02;78.57
51067;BME280;37112;45.892;-123.962;2023-06-22T10:49:04;101611.61;;;12.03;78.50
51067;BME280;37112;45.892;-123.962;2023-06-22T10:51:34;101612.66;;;12.03;78.55
51067;BME280;37112;45.892;-123.962;2023-06-22T10:53:54;101605.02;;;12.03;78.56
51067;BME280;37112;45.892;-123.962;2023-06-22T10:56:25;101600.35;;;12.04;78.62
51067;BME280;37112;45.892;-123.962;2023-06-22T10:58:55;101599.73;;;12.02;78.46
51067;BME280;37112;45.892;-123.962;2023-06-22T11:01:26;101594.62;;;12.02;78.40
51067;BME280;37112;45.892;-123.962;2023-06-22T11:04:04;101595.40;;;12.00;78.45
51067;BME280;37112;45.892;-123.962;2023-06-22T11:06:24;101591.38;;;11.99;78.57
51067;BME280;37112;45.892;-123.962;2023-06-22T11:08:45;101589.66;;;12.01;78.88
51067;BME280;37112;45.892;-123.962;2023-06-22T11:11:32;101588.34;;;12.02;78.88
51067;BME280;37112;45.892;-123.962;2023-06-22T11:14:02;101585.42;;;12.00;78.82
51067;BME280;37112;45.892;-123.962;2023-06-22T11:16:33;101583.09;;;12.01;78.86
51067;BME280;37112;45.892;-123.962;2023-06-22T11:19:04;101579.88;;;12.01;78.95
51067;BME280;37112;45.892;-123.962;2023-06-22T11:21:23;101582.16;;;12.02;78.99
51067;BME280;37112;45.892;-123.962;2023-06-22T11:23:44;101579.81;;;12.02;78.91
51067;BME280;37112;45.892;-123.962;2023-06-22T11:26:14;101579.83;;;12.02;78.98
51067;BME280;37112;45.892;-123.962;2023-06-22T11:28:44;101577.73;;;12.01;78.93
51067;BME280;37112;45.892;-123.962;2023-06-22T11:31:14;101577.52;;;12.02;79.04
51067;BME280;37112;45.892;-123.962;2023-06-22T11:33:52;101574.46;;;12.02;79.08
51067;BME280;37112;45.892;-123.962;2023-06-22T11:36:23;101569.95;;;12.03;79.18
51067;BME280;37112;45.892;-123.962;2023-06-22T11:38:55;101568.59;;;12.02;79.12
51067;BME280;37112;45.892;-123.962;2023-06-22T11:41:26;101564.17;;;11.98;79.08
51067;BME280;37112;45.892;-123.962;2023-06-22T11:43:56;101561.90;;;11.94;79.19
51067;BME280;37112;45.892;-123.962;2023-06-22T11:46:26;101559.84;;;11.94;79.24
51067;BME280;37112;45.892;-123.962;2023-06-22T11:48:57;101554.08;;;11.92;79.27
51067;BME280;37112;45.892;-123.962;2023-06-22T11:51:27;101552.73;;;11.90;79.22
51067;BME280;37112;45.892;-123.962;2023-06-22T11:53:59;101544.05;;;11.89;79.36
51067;BME280;37112;45.892;-123.962;2023-06-22T11:56:30;101540.98;;;11.90;79.57
51067;BME280;37112;45.892;-123.962;2023-06-22T11:59:01;101539.76;;;11.93;80.01
51067;BME280;37112;45.892;-123.962;2023-06-22T12:01:32;101541.80;;;11.94;79.93
51067;BME280;37112;45.892;-123.962;2023-06-22T12:04:02;101543.28;;;11.94;79.61
51067;BME280;37112;45.892;-123.962;2023-06-22T12:06:25;101540.66;;;11.89;79.49
51067;BME280;37112;45.892;-123.962;2023-06-22T12:08:56;101539.89;;;11.88;79.30
51067;BME280;37112;45.892;-123.962;2023-06-22T12:11:15;101534.64;;;11.86;79.59
51067;BME280;37112;45.892;-123.962;2023-06-22T12:13:46;101530.96;;;11.85;79.61
51067;BME280;37112;45.892;-123.962;2023-06-22T12:16:16;101531.61;;;11.83;79.65
51067;BME280;37112;45.892;-123.962;2023-06-22T12:18:49;101527.39;;;11.82;79.66
51067;BME280;37112;45.892;-123.962;2023-06-22T12:21:19;101520.86;;;11.82;79.78
51067;BME280;37112;45.892;-123.962;2023-06-22T12:23:50;101519.52;;;11.80;79.70
51067;BME280;37112;45.892;-123.962;2023-06-22T12:26:21;101517.00;;;11.78;79.72
51067;BME280;37112;45.892;-123.962;2023-06-22T12:28:51;101517.13;;;11.76;79.74
51067;BME280;37112;45.892;-123.962;2023-06-22T12:31:15;101515.92;;;11.74;80.04
51067;BME280;37112;45.892;-123.962;2023-06-22T12:33:38;101512.79;;;11.77;80.48